sensor_id;sensor_type;location;lat;lon;timestamp;P1;durP1;ratioP1;P2;durP2;ratioP2
9968;SDS011;5025;48.890;9.278;2022-12-07T00:01:28;7.30;;;6.70;;
9968;SDS011;5025;48.890;9.278;2022-12-07T00:03:59;6.77;;;6.27;;
9968;SDS011;5025;48.890;9.278;2022-12-07T00:06:29;7.07;;;6.47;;
9968;SDS011;5025;48.890;9.278;2022-12-07T00:09:03;7.47;;;6.47;;
9968;SDS011;5025;48.890;9.278;2022-12-07T00:11:29;7.40;;;6.70;;
9968;SDS011;5025;48.890;9.278;2022-12-07T00:13:55;6.73;;;6.13;;
9968;SDS011;5025;48.890;9.278;2022-12-07T00:16:23;7.83;;;7.13;;
9968;SDS011;5025;48.890;9.278;2022-12-07T00:18:50;8.10;;;7.40;;
9968;SDS011;5025;48.890;9.278;2022-12-07T00:21:26;8.10;;;7.30;;
9968;SDS011;5025;48.890;9.278;2022-12-07T00:23:59;8.00;;;7.20;;
9968;SDS011;5025;48.890;9.278;2022-12-07T00:26:26;7.60;;;7.00;;
9968;SDS011;5025;48.890;9.278;2022-12-07T00:28:54;7.10;;;6.50;;
9968;SDS011;5025;48.890;9.278;2022-12-07T00:31:21;7.20;;;6.50;;
9968;SDS011;5025;48.890;9.278;2022-12-07T00:33:48;6.97;;;6.37;;
9968;SDS011;5025;48.890;9.278;2022-12-07T00:36:14;6.80;;;6.20;;
9968;SDS011;5025;48.890;9.278;2022-12-07T00:38:41;7.07;;;6.47;;
9968;SDS011;5025;48.890;9.278;2022-12-07T00:41:09;7.50;;;6.70;;
9968;SDS011;5025;48.890;9.278;2022-12-07T00:43:36;6.50;;;5.90;;
9968;SDS011;5025;48.890;9.278;2022-12-07T00:46:02;6.57;;;6.07;;
9968;SDS011;5025;48.890;9.278;2022-12-07T00:48:27;6.87;;;6.27;;
9968;SDS011;5025;48.890;9.278;2022-12-07T00:50:52;6.83;;;6.23;;
9968;SDS011;5025;48.890;9.278;2022-12-07T00:53:18;6.00;;;5.50;;
9968;SDS011;5025;48.890;9.278;2022-12-07T00:55:44;5.57;;;5.17;;
9968;SDS011;5025;48.890;9.278;2022-12-07T00:58:09;6.83;;;6.23;;
9968;SDS011;5025;48.890;9.278;2022-12-07T01:00:36;6.07;;;5.57;;
9968;SDS011;5025;48.890;9.278;2022-12-07T01:03:03;7.20;;;6.60;;
9968;SDS011;5025;48.890;9.278;2022-12-07T01:05:29;7.20;;;6.60;;
9968;SDS011;5025;48.890;9.278;2022-12-07T01:07:55;7.30;;;6.70;;
9968;SDS011;5025;48.890;9.278;2022-12-07T01:10:20;6.67;;;6.13;;
9968;SDS011;5025;48.890;9.278;2022-12-07T01:12:45;6.17;;;5.67;;
9968;SDS011;5025;48.890;9.278;2022-12-07T01:15:10;6.50;;;5.87;;
9968;SDS011;5025;48.890;9.278;2022-12-07T01:17:36;6.53;;;5.93;;
9968;SDS011;5025;48.890;9.278;2022-12-07T01:20:02;6.13;;;5.63;;
9968;SDS011;5025;48.890;9.278;2022-12-07T01:22:27;5.90;;;5.40;;
9968;SDS011;5025;48.890;9.278;2022-12-07T01:24:53;5.93;;;5.43;;
9968;SDS011;5025;48.890;9.278;2022-12-07T01:27:18;5.80;;;5.33;;
9968;SDS011;5025;48.890;9.278;2022-12-07T01:29:43;6.03;;;5.60;;
9968;SDS011;5025;48.890;9.278;2022-12-07T01:32:09;5.53;;;5.03;;
9968;SDS011;5025;48.890;9.278;2022-12-07T01:34:34;5.67;;;5.17;;
9968;SDS011;5025;48.890;9.278;2022-12-07T01:37:00;5.93;;;5.43;;
9968;SDS011;5025;48.890;9.278;2022-12-07T01:39:25;5.63;;;5.17;;
9968;SDS011;5025;48.890;9.278;2022-12-07T01:41:51;6.27;;;5.77;;
9968;SDS011;5025;48.890;9.278;2022-12-07T01:46:46;6.73;;;6.10;;
9968;SDS011;5025;48.890;9.278;2022-12-07T01:49:36;6.53;;;5.93;;
9968;SDS011;5025;48.890;9.278;2022-12-07T01:54:45;7.20;;;6.60;;
9968;SDS011;5025;48.890;9.278;2022-12-07T01:57:13;6.73;;;6.00;;
9968;SDS011;5025;48.890;9.278;2022-12-07T01:59:41;6.57;;;6.07;;
9968;SDS011;5025;48.890;9.278;2022-12-07T02:02:10;6.77;;;6.17;;
9968;SDS011;5025;48.890;9.278;2022-12-07T02:04:43;6.73;;;6.17;;
9968;SDS011;5025;48.890;9.278;2022-12-07T02:07:09;6.80;;;6.20;;
9968;SDS011;5025;48.890;9.278;2022-12-07T02:09:34;5.97;;;5.47;;
9968;SDS011;5025;48.890;9.278;2022-12-07T02:11:59;6.63;;;6.07;;
9968;SDS011;5025;48.890;9.278;2022-12-07T02:14:25;6.77;;;6.17;;
9968;SDS011;5025;48.890;9.278;2022-12-07T02:17:54;6.83;;;6.23;;
9968;SDS011;5025;48.890;9.278;2022-12-07T02:25:54;7.07;;;6.47;;
9968;SDS011;5025;48.890;9.278;2022-12-07T02:31:04;7.50;;;6.80;;
9968;SDS011;5025;48.890;9.278;2022-12-07T02:33:36;7.20;;;6.60;;
9968;SDS011;5025;48.890;9.278;2022-12-07T02:36:08;8.43;;;7.63;;
9968;SDS011;5025;48.890;9.278;2022-12-07T02:41:28;8.43;;;7.53;;
9968;SDS011;5025;48.890;9.278;2022-12-07T02:43:59;7.90;;;7.17;;
9968;SDS011;5025;48.890;9.278;2022-12-07T02:46:28;7.70;;;7.00;;
9968;SDS011;5025;48.890;9.278;2022-12-07T02:48:57;8.27;;;7.53;;
9968;SDS011;5025;48.890;9.278;2022-12-07T02:51:24;8.07;;;7.37;;
9968;SDS011;5025;48.890;9.278;2022-12-07T02:53:50;7.60;;;6.90;;
9968;SDS011;5025;48.890;9.278;2022-12-07T03:13:00;8.87;;;8.07;;
9968;SDS011;5025;48.890;9.278;2022-12-07T03:15:35;7.57;;;6.93;;
9968;SDS011;5025;48.890;9.278;2022-12-07T03:18:01;7.90;;;7.20;;
9968;SDS011;5025;48.890;9.278;2022-12-07T03:20:29;7.80;;;7.10;;
9968;SDS011;5025;48.890;9.278;2022-12-07T03:22:56;7.60;;;6.90;;
9968;SDS011;5025;48.890;9.278;2022-12-07T03:25:23;7.23;;;6.63;;
9968;SDS011;5025;48.890;9.278;2022-12-07T03:30:33;6.67;;;6.17;;
9968;SDS011;5025;48.890;9.278;2022-12-07T03:33:22;7.77;;;7.07;;
9968;SDS011;5025;48.890;9.278;2022-12-07T03:35:57;6.87;;;6.27;;
9968;SDS011;5025;48.890;9.278;2022-12-07T03:38:33;6.63;;;6.13;;
9968;SDS011;5025;48.890;9.278;2022-12-07T03:41:14;6.67;;;6.07;;
9968;SDS011;5025;48.890;9.278;2022-12-07T03:43:43;6.63;;;6.10;;
9968;SDS011;5025;48.890;9.278;2022-12-07T03:48:51;7.10;;;6.50;;
9968;SDS011;5025;48.890;9.278;2022-12-07T03:51:26;7.17;;;6.50;;
9968;SDS011;5025;48.890;9.278;2022-12-07T03:53:59;8.80;;;8.00;;
9968;SDS011;5025;48.890;9.278;2022-12-07T03:56:33;8.37;;;7.57;;
9968;SDS011;5025;48.890;9.278;2022-12-07T03:58:59;8.83;;;7.73;;
9968;SDS011;5025;48.890;9.278;2022-12-07T04:01:25;7.83;;;7.13;;
9968;SDS011;5025;48.890;9.278;2022-12-07T04:03:50;8.00;;;7.30;;
9968;SDS011;5025;48.890;9.278;2022-12-07T04:06:15;8.07;;;7.30;;
9968;SDS011;5025;48.890;9.278;2022-12-07T04:08:41;8.17;;;7.37;;
9968;SDS011;5025;48.890;9.278;2022-12-07T04:11:06;8.90;;;8.00;;
9968;SDS011;5025;48.890;9.278;2022-12-07T04:13:31;8.57;;;7.70;;
9968;SDS011;5025;48.890;9.278;2022-12-07T04:16:16;8.73;;;7.83;;
9968;SDS011;5025;48.890;9.278;2022-12-07T04:18:42;8.73;;;7.83;;
9968;SDS011;5025;48.890;9.278;2022-12-07T04:21:07;8.47;;;7.67;;
9968;SDS011;5025;48.890;9.278;2022-12-07T04:23:32;8.40;;;7.60;;
9968;SDS011;5025;48.890;9.278;2022-12-07T04:25:57;8.60;;;7.80;;
9968;SDS011;5025;48.890;9.278;2022-12-07T04:28:23;8.93;;;8.03;;
9968;SDS011;5025;48.890;9.278;2022-12-07T04:30:48;8.27;;;7.53;;
9968;SDS011;5025;48.890;9.278;2022-12-07T04:33:13;8.57;;;7.67;;
9968;SDS011;5025;48.890;9.278;2022-12-07T04:35:38;8.57;;;7.77;;
9968;SDS011;5025;48.890;9.278;2022-12-07T04:38:04;9.20;;;7.87;;
9968;SDS011;5025;48.890;9.278;2022-12-07T04:40:29;8.37;;;7.57;;
9968;SDS011;5025;48.890;9.278;2022-12-07T04:42:54;9.23;;;8.33;;
9968;SDS011;5025;48.890;9.278;2022-12-07T04:45:20;8.33;;;7.57;;
9968;SDS011;5025;48.890;9.278;2022-12-07T04:47:45;8.73;;;7.90;;
9968;SDS011;5025;48.890;9.278;2022-12-07T04:50:10;9.63;;;8.63;;
9968;SDS011;5025;48.890;9.278;2022-12-07T04:52:35;9.27;;;8.37;;
9968;SDS011;5025;48.890;9.278;2022-12-07T04:55:01;9.43;;;8.53;;
9968;SDS011;5025;48.890;9.278;2022-12-07T04:57:26;9.03;;;8.23;;
9968;SDS011;5025;48.890;9.278;2022-12-07T04:59:51;8.43;;;7.63;;
9968;SDS011;5025;48.890;9.278;2022-12-07T05:02:17;8.67;;;7.87;;
9968;SDS011;5025;48.890;9.278;2022-12-07T05:04:42;8.90;;;8.10;;
9968;SDS011;5025;48.890;9.278;2022-12-07T05:07:07;8.50;;;7.70;;
9968;SDS011;5025;48.890;9.278;2022-12-07T05:09:33;7.60;;;6.90;;
9968;SDS011;5025;48.890;9.278;2022-12-07T05:11:58;7.50;;;6.80;;
9968;SDS011;5025;48.890;9.278;2022-12-07T05:14:23;7.33;;;6.67;;
9968;SDS011;5025;48.890;9.278;2022-12-07T05:16:49;7.03;;;6.43;;
9968;SDS011;5025;48.890;9.278;2022-12-07T05:19:16;6.83;;;6.20;;
9968;SDS011;5025;48.890;9.278;2022-12-07T05:21:42;7.00;;;6.40;;
9968;SDS011;5025;48.890;9.278;2022-12-07T05:24:08;7.83;;;7.13;;
9968;SDS011;5025;48.890;9.278;2022-12-07T05:26:36;7.70;;;6.97;;
9968;SDS011;5025;48.890;9.278;2022-12-07T05:29:01;7.67;;;6.97;;
9968;SDS011;5025;48.890;9.278;2022-12-07T05:31:27;6.80;;;6.20;;
9968;SDS011;5025;48.890;9.278;2022-12-07T05:33:52;6.77;;;6.17;;
9968;SDS011;5025;48.890;9.278;2022-12-07T05:36:18;7.20;;;6.60;;
9968;SDS011;5025;48.890;9.278;2022-12-07T05:38:44;6.50;;;6.00;;
9968;SDS011;5025;48.890;9.278;2022-12-07T05:41:11;6.97;;;6.37;;
9968;SDS011;5025;48.890;9.278;2022-12-07T05:43:59;6.70;;;6.17;;
9968;SDS011;5025;48.890;9.278;2022-12-07T05:46:24;7.60;;;6.90;;
9968;SDS011;5025;48.890;9.278;2022-12-07T05:48:50;7.20;;;6.60;;
9968;SDS011;5025;48.890;9.278;2022-12-07T05:51:15;6.70;;;6.10;;
9968;SDS011;5025;48.890;9.278;2022-12-07T05:53:41;6.80;;;6.20;;
9968;SDS011;5025;48.890;9.278;2022-12-07T05:56:06;7.43;;;6.73;;
9968;SDS011;5025;48.890;9.278;2022-12-07T05:58:31;7.00;;;6.40;;
9968;SDS011;5025;48.890;9.278;2022-12-07T06:01:15;7.03;;;6.43;;
9968;SDS011;5025;48.890;9.278;2022-12-07T06:03:41;7.17;;;6.47;;
9968;SDS011;5025;48.890;9.278;2022-12-07T06:06:06;7.17;;;6.53;;
9968;SDS011;5025;48.890;9.278;2022-12-07T06:08:31;6.73;;;6.23;;
9968;SDS011;5025;48.890;9.278;2022-12-07T06:10:56;6.60;;;6.10;;
9968;SDS011;5025;48.890;9.278;2022-12-07T06:13:40;7.73;;;7.00;;
9968;SDS011;5025;48.890;9.278;2022-12-07T06:16:06;8.00;;;7.30;;
9968;SDS011;5025;48.890;9.278;2022-12-07T06:18:32;8.80;;;7.90;;
9968;SDS011;5025;48.890;9.278;2022-12-07T06:20:57;16.73;;;14.47;;
9968;SDS011;5025;48.890;9.278;2022-12-07T06:23:23;13.27;;;11.97;;
9968;SDS011;5025;48.890;9.278;2022-12-07T06:25:48;12.43;;;11.13;;
9968;SDS011;5025;48.890;9.278;2022-12-07T06:28:13;12.30;;;10.73;;
9968;SDS011;5025;48.890;9.278;2022-12-07T06:30:38;11.13;;;10.03;;
9968;SDS011;5025;48.890;9.278;2022-12-07T06:33:04;10.70;;;9.67;;
9968;SDS011;5025;48.890;9.278;2022-12-07T06:35:29;9.50;;;8.60;;
9968;SDS011;5025;48.890;9.278;2022-12-07T06:37:57;9.70;;;8.70;;
9968;SDS011;5025;48.890;9.278;2022-12-07T06:40:22;9.50;;;8.60;;
9968;SDS011;5025;48.890;9.278;2022-12-07T06:42:47;8.83;;;7.93;;
9968;SDS011;5025;48.890;9.278;2022-12-07T06:45:12;9.50;;;8.60;;
9968;SDS011;5025;48.890;9.278;2022-12-07T06:47:38;9.10;;;8.20;;
9968;SDS011;5025;48.890;9.278;2022-12-07T06:50:03;8.80;;;7.90;;
9968;SDS011;5025;48.890;9.278;2022-12-07T06:52:30;8.50;;;7.70;;
9968;SDS011;5025;48.890;9.278;2022-12-07T06:54:56;8.60;;;7.80;;
9968;SDS011;5025;48.890;9.278;2022-12-07T06:57:21;8.17;;;7.37;;
9968;SDS011;5025;48.890;9.278;2022-12-07T06:59:47;8.53;;;7.73;;
9968;SDS011;5025;48.890;9.278;2022-12-07T07:02:12;7.77;;;7.07;;
9968;SDS011;5025;48.890;9.278;2022-12-07T07:04:38;7.43;;;6.70;;
9968;SDS011;5025;48.890;9.278;2022-12-07T07:07:03;7.33;;;6.73;;
9968;SDS011;5025;48.890;9.278;2022-12-07T07:09:28;7.47;;;6.80;;
9968;SDS011;5025;48.890;9.278;2022-12-07T07:11:54;8.10;;;7.30;;
9968;SDS011;5025;48.890;9.278;2022-12-07T07:14:19;8.37;;;7.57;;
9968;SDS011;5025;48.890;9.278;2022-12-07T07:16:46;8.53;;;7.63;;
9968;SDS011;5025;48.890;9.278;2022-12-07T07:19:11;8.23;;;7.43;;
9968;SDS011;5025;48.890;9.278;2022-12-07T07:21:36;8.10;;;7.30;;
9968;SDS011;5025;48.890;9.278;2022-12-07T07:24:01;7.33;;;6.63;;
9968;SDS011;5025;48.890;9.278;2022-12-07T07:26:27;8.43;;;7.63;;
9968;SDS011;5025;48.890;9.278;2022-12-07T07:28:52;7.83;;;7.13;;
9968;SDS011;5025;48.890;9.278;2022-12-07T07:31:17;9.50;;;8.50;;
9968;SDS011;5025;48.890;9.278;2022-12-07T07:33:44;10.20;;;9.20;;
9968;SDS011;5025;48.890;9.278;2022-12-07T07:36:11;9.80;;;8.90;;
9968;SDS011;5025;48.890;9.278;2022-12-07T07:38:36;11.77;;;10.60;;
9968;SDS011;5025;48.890;9.278;2022-12-07T07:41:02;10.50;;;9.50;;
9968;SDS011;5025;48.890;9.278;2022-12-07T07:43:27;9.80;;;8.90;;
9968;SDS011;5025;48.890;9.278;2022-12-07T07:45:52;9.63;;;8.73;;
9968;SDS011;5025;48.890;9.278;2022-12-07T07:48:18;9.43;;;8.53;;
9968;SDS011;5025;48.890;9.278;2022-12-07T07:50:43;9.77;;;8.77;;
9968;SDS011;5025;48.890;9.278;2022-12-07T07:53:08;9.60;;;8.60;;
9968;SDS011;5025;48.890;9.278;2022-12-07T07:55:33;8.67;;;7.80;;
9968;SDS011;5025;48.890;9.278;2022-12-07T07:57:59;8.10;;;7.40;;
9968;SDS011;5025;48.890;9.278;2022-12-07T08:00:24;9.13;;;8.23;;
9968;SDS011;5025;48.890;9.278;2022-12-07T08:02:49;8.73;;;7.83;;
9968;SDS011;5025;48.890;9.278;2022-12-07T08:05:15;9.80;;;8.30;;
9968;SDS011;5025;48.890;9.278;2022-12-07T08:07:41;9.10;;;8.10;;
9968;SDS011;5025;48.890;9.278;2022-12-07T08:10:06;9.47;;;8.47;;
9968;SDS011;5025;48.890;9.278;2022-12-07T08:12:38;9.57;;;8.63;;
9968;SDS011;5025;48.890;9.278;2022-12-07T08:15:24;8.77;;;7.87;;
9968;SDS011;5025;48.890;9.278;2022-12-07T08:17:50;8.77;;;7.90;;
9968;SDS011;5025;48.890;9.278;2022-12-07T08:20:16;9.00;;;8.10;;
9968;SDS011;5025;48.890;9.278;2022-12-07T08:22:41;8.67;;;7.57;;
9968;SDS011;5025;48.890;9.278;2022-12-07T08:25:06;8.00;;;7.30;;
9968;SDS011;5025;48.890;9.278;2022-12-07T08:27:32;8.00;;;7.10;;
9968;SDS011;5025;48.890;9.278;2022-12-07T08:29:57;7.87;;;7.10;;
9968;SDS011;5025;48.890;9.278;2022-12-07T08:32:22;7.93;;;7.23;;
9968;SDS011;5025;48.890;9.278;2022-12-07T08:34:48;7.60;;;6.90;;
9968;SDS011;5025;48.890;9.278;2022-12-07T08:37:14;7.87;;;6.80;;
9968;SDS011;5025;48.890;9.278;2022-12-07T08:39:39;8.70;;;7.80;;
9968;SDS011;5025;48.890;9.278;2022-12-07T08:42:04;8.70;;;7.80;;
9968;SDS011;5025;48.890;9.278;2022-12-07T08:44:30;8.83;;;7.70;;
9968;SDS011;5025;48.890;9.278;2022-12-07T08:46:56;13.53;;;11.67;;
9968;SDS011;5025;48.890;9.278;2022-12-07T08:49:27;16.70;;;14.90;;
9968;SDS011;5025;48.890;9.278;2022-12-07T08:51:56;15.13;;;12.43;;
9968;SDS011;5025;48.890;9.278;2022-12-07T08:54:21;13.33;;;11.93;;
9968;SDS011;5025;48.890;9.278;2022-12-07T08:56:47;12.73;;;11.50;;
9968;SDS011;5025;48.890;9.278;2022-12-07T08:59:15;11.73;;;10.53;;
9968;SDS011;5025;48.890;9.278;2022-12-07T09:01:42;12.23;;;10.37;;
9968;SDS011;5025;48.890;9.278;2022-12-07T09:04:08;11.17;;;10.07;;
9968;SDS011;5025;48.890;9.278;2022-12-07T09:06:33;10.80;;;9.67;;
9968;SDS011;5025;48.890;9.278;2022-12-07T09:08:59;11.37;;;9.67;;
9968;SDS011;5025;48.890;9.278;2022-12-07T09:11:26;10.40;;;9.50;;
9968;SDS011;5025;48.890;9.278;2022-12-07T09:13:51;8.80;;;7.90;;
9968;SDS011;5025;48.890;9.278;2022-12-07T09:16:16;7.73;;;7.03;;
9968;SDS011;5025;48.890;9.278;2022-12-07T09:18:42;7.63;;;6.93;;
9968;SDS011;5025;48.890;9.278;2022-12-07T09:21:07;7.60;;;6.80;;
9968;SDS011;5025;48.890;9.278;2022-12-07T09:23:33;7.67;;;6.97;;
9968;SDS011;5025;48.890;9.278;2022-12-07T09:26:02;7.57;;;6.87;;
9968;SDS011;5025;48.890;9.278;2022-12-07T09:28:29;7.97;;;7.17;;
9968;SDS011;5025;48.890;9.278;2022-12-07T09:30:56;9.00;;;8.17;;
9968;SDS011;5025;48.890;9.278;2022-12-07T09:33:21;8.33;;;7.60;;
9968;SDS011;5025;48.890;9.278;2022-12-07T09:35:47;7.30;;;6.70;;
9968;SDS011;5025;48.890;9.278;2022-12-07T09:38:14;12.87;;;11.57;;
9968;SDS011;5025;48.890;9.278;2022-12-07T09:40:40;11.17;;;10.17;;
9968;SDS011;5025;48.890;9.278;2022-12-07T09:43:11;11.17;;;10.10;;
9968;SDS011;5025;48.890;9.278;2022-12-07T09:45:39;9.63;;;8.73;;
9968;SDS011;5025;48.890;9.278;2022-12-07T09:48:05;7.40;;;6.70;;
9968;SDS011;5025;48.890;9.278;2022-12-07T09:50:41;6.13;;;5.53;;
9968;SDS011;5025;48.890;9.278;2022-12-07T09:53:12;6.90;;;6.20;;
9968;SDS011;5025;48.890;9.278;2022-12-07T09:55:42;8.10;;;7.13;;
9968;SDS011;5025;48.890;9.278;2022-12-07T09:58:11;7.40;;;5.97;;
9968;SDS011;5025;48.890;9.278;2022-12-07T10:00:45;6.10;;;5.50;;
9968;SDS011;5025;48.890;9.278;2022-12-07T10:03:10;7.33;;;5.57;;
9968;SDS011;5025;48.890;9.278;2022-12-07T10:05:43;6.20;;;5.60;;
9968;SDS011;5025;48.890;9.278;2022-12-07T10:08:10;6.63;;;5.90;;
9968;SDS011;5025;48.890;9.278;2022-12-07T10:10:37;6.17;;;5.57;;
9968;SDS011;5025;48.890;9.278;2022-12-07T10:13:04;6.37;;;5.70;;
9968;SDS011;5025;48.890;9.278;2022-12-07T10:15:42;5.83;;;5.03;;
9968;SDS011;5025;48.890;9.278;2022-12-07T10:18:38;5.63;;;5.13;;
9968;SDS011;5025;48.890;9.278;2022-12-07T10:29:00;5.40;;;4.77;;
9968;SDS011;5025;48.890;9.278;2022-12-07T10:31:45;5.63;;;4.83;;
9968;SDS011;5025;48.890;9.278;2022-12-07T10:34:20;6.43;;;5.80;;
9968;SDS011;5025;48.890;9.278;2022-12-07T10:36:46;7.00;;;5.10;;
9968;SDS011;5025;48.890;9.278;2022-12-07T10:39:16;5.37;;;4.50;;
9968;SDS011;5025;48.890;9.278;2022-12-07T10:41:52;4.50;;;4.10;;
9968;SDS011;5025;48.890;9.278;2022-12-07T10:44:29;4.90;;;4.37;;
9968;SDS011;5025;48.890;9.278;2022-12-07T10:52:56;4.20;;;3.90;;
9968;SDS011;5025;48.890;9.278;2022-12-07T10:58:37;4.50;;;4.10;;
9968;SDS011;5025;48.890;9.278;2022-12-07T11:01:13;4.07;;;3.73;;
9968;SDS011;5025;48.890;9.278;2022-12-07T11:03:47;6.37;;;5.37;;
9968;SDS011;5025;48.890;9.278;2022-12-07T11:06:26;4.93;;;4.43;;
9968;SDS011;5025;48.890;9.278;2022-12-07T11:11:49;5.40;;;4.90;;
9968;SDS011;5025;48.890;9.278;2022-12-07T11:14:32;7.47;;;5.93;;
9968;SDS011;5025;48.890;9.278;2022-12-07T11:22:50;7.10;;;5.70;;
9968;SDS011;5025;48.890;9.278;2022-12-07T11:25:34;9.33;;;7.00;;
9968;SDS011;5025;48.890;9.278;2022-12-07T11:29:01;5.63;;;5.10;;
9968;SDS011;5025;48.890;9.278;2022-12-07T11:33:44;6.27;;;5.77;;
9968;SDS011;5025;48.890;9.278;2022-12-07T11:39:04;7.37;;;6.60;;
9968;SDS011;5025;48.890;9.278;2022-12-07T11:41:41;7.60;;;6.90;;
9968;SDS011;5025;48.890;9.278;2022-12-07T11:44:08;9.07;;;7.53;;
9968;SDS011;5025;48.890;9.278;2022-12-07T11:46:49;7.80;;;6.63;;
9968;SDS011;5025;48.890;9.278;2022-12-07T11:49:29;8.53;;;7.53;;
9968;SDS011;5025;48.890;9.278;2022-12-07T11:52:06;8.03;;;6.97;;
9968;SDS011;5025;48.890;9.278;2022-12-07T11:54:42;8.00;;;7.20;;
9968;SDS011;5025;48.890;9.278;2022-12-07T11:57:11;8.53;;;7.60;;
9968;SDS011;5025;48.890;9.278;2022-12-07T11:59:59;8.13;;;7.33;;
9968;SDS011;5025;48.890;9.278;2022-12-07T12:02:31;8.07;;;7.27;;
9968;SDS011;5025;48.890;9.278;2022-12-07T12:07:38;10.77;;;7.57;;
9968;SDS011;5025;48.890;9.278;2022-12-07T12:10:06;8.43;;;7.63;;
9968;SDS011;5025;48.890;9.278;2022-12-07T12:12:46;9.90;;;8.07;;
9968;SDS011;5025;48.890;9.278;2022-12-07T12:15:35;8.70;;;7.50;;
9968;SDS011;5025;48.890;9.278;2022-12-07T12:18:15;8.47;;;7.57;;
9968;SDS011;5025;48.890;9.278;2022-12-07T12:20:46;8.43;;;7.50;;
9968;SDS011;5025;48.890;9.278;2022-12-07T12:23:18;8.47;;;7.60;;
9968;SDS011;5025;48.890;9.278;2022-12-07T12:25:54;10.10;;;8.27;;
9968;SDS011;5025;48.890;9.278;2022-12-07T12:28:29;9.47;;;8.47;;
9968;SDS011;5025;48.890;9.278;2022-12-07T12:31:16;10.87;;;7.63;;
9968;SDS011;5025;48.890;9.278;2022-12-07T12:33:58;10.53;;;8.40;;
9968;SDS011;5025;48.890;9.278;2022-12-07T12:44:08;9.50;;;7.87;;
9968;SDS011;5025;48.890;9.278;2022-12-07T12:51:50;8.47;;;7.63;;
9968;SDS011;5025;48.890;9.278;2022-12-07T13:10:34;9.77;;;8.20;;
9968;SDS011;5025;48.890;9.278;2022-12-07T13:20:40;9.33;;;8.17;;
9968;SDS011;5025;48.890;9.278;2022-12-07T13:23:16;10.43;;;8.50;;
9968;SDS011;5025;48.890;9.278;2022-12-07T13:25:46;10.13;;;7.90;;
9968;SDS011;5025;48.890;9.278;2022-12-07T13:28:17;8.27;;;7.47;;
9968;SDS011;5025;48.890;9.278;2022-12-07T13:30:53;8.70;;;7.90;;
9968;SDS011;5025;48.890;9.278;2022-12-07T13:33:24;9.47;;;8.57;;
9968;SDS011;5025;48.890;9.278;2022-12-07T13:35:54;11.17;;;8.40;;
9968;SDS011;5025;48.890;9.278;2022-12-07T13:43:55;10.13;;;9.13;;
9968;SDS011;5025;48.890;9.278;2022-12-07T13:46:26;11.43;;;9.50;;
9968;SDS011;5025;48.890;9.278;2022-12-07T13:49:03;11.60;;;9.87;;
9968;SDS011;5025;48.890;9.278;2022-12-07T13:51:41;12.50;;;9.83;;
9968;SDS011;5025;48.890;9.278;2022-12-07T13:54:11;10.40;;;9.10;;
9968;SDS011;5025;48.890;9.278;2022-12-07T13:56:38;11.77;;;9.90;;
9968;SDS011;5025;48.890;9.278;2022-12-07T13:59:14;10.23;;;9.23;;
9968;SDS011;5025;48.890;9.278;2022-12-07T14:01:46;10.47;;;8.83;;
9968;SDS011;5025;48.890;9.278;2022-12-07T14:04:16;12.10;;;8.77;;
9968;SDS011;5025;48.890;9.278;2022-12-07T14:06:51;10.97;;;9.83;;
9968;SDS011;5025;48.890;9.278;2022-12-07T14:09:18;10.53;;;9.43;;
9968;SDS011;5025;48.890;9.278;2022-12-07T14:11:47;12.17;;;9.47;;
9968;SDS011;5025;48.890;9.278;2022-12-07T14:14:18;10.93;;;9.20;;
9968;SDS011;5025;48.890;9.278;2022-12-07T14:16:55;10.43;;;9.37;;
9968;SDS011;5025;48.890;9.278;2022-12-07T14:22:06;10.43;;;8.90;;
9968;SDS011;5025;48.890;9.278;2022-12-07T14:24:43;9.93;;;8.93;;
9968;SDS011;5025;48.890;9.278;2022-12-07T14:27:19;11.00;;;9.80;;
9968;SDS011;5025;48.890;9.278;2022-12-07T14:29:46;10.80;;;9.50;;
9968;SDS011;5025;48.890;9.278;2022-12-07T14:37:37;11.53;;;10.27;;
9968;SDS011;5025;48.890;9.278;2022-12-07T14:40:03;10.43;;;9.33;;
9968;SDS011;5025;48.890;9.278;2022-12-07T14:42:29;11.63;;;10.10;;
9968;SDS011;5025;48.890;9.278;2022-12-07T14:44:56;11.43;;;9.63;;
9968;SDS011;5025;48.890;9.278;2022-12-07T14:47:22;12.53;;;10.27;;
9968;SDS011;5025;48.890;9.278;2022-12-07T14:49:49;10.77;;;9.67;;
9968;SDS011;5025;48.890;9.278;2022-12-07T14:52:16;11.30;;;10.10;;
9968;SDS011;5025;48.890;9.278;2022-12-07T14:54:45;12.20;;;10.40;;
9968;SDS011;5025;48.890;9.278;2022-12-07T14:57:10;10.70;;;9.57;;
9968;SDS011;5025;48.890;9.278;2022-12-07T14:59:36;11.63;;;10.40;;
9968;SDS011;5025;48.890;9.278;2022-12-07T15:02:02;14.40;;;10.37;;
9968;SDS011;5025;48.890;9.278;2022-12-07T15:04:27;12.27;;;10.97;;
9968;SDS011;5025;48.890;9.278;2022-12-07T15:07:00;12.37;;;10.50;;
9968;SDS011;5025;48.890;9.278;2022-12-07T15:09:27;11.87;;;10.10;;
9968;SDS011;5025;48.890;9.278;2022-12-07T15:11:53;12.60;;;10.23;;
9968;SDS011;5025;48.890;9.278;2022-12-07T15:14:18;11.10;;;9.80;;
9968;SDS011;5025;48.890;9.278;2022-12-07T15:16:44;10.90;;;9.80;;
9968;SDS011;5025;48.890;9.278;2022-12-07T15:19:17;11.03;;;9.10;;
9968;SDS011;5025;48.890;9.278;2022-12-07T15:21:45;10.57;;;9.47;;
9968;SDS011;5025;48.890;9.278;2022-12-07T15:24:11;11.70;;;9.30;;
9968;SDS011;5025;48.890;9.278;2022-12-07T15:26:38;10.20;;;9.20;;
9968;SDS011;5025;48.890;9.278;2022-12-07T15:29:04;10.40;;;9.30;;
9968;SDS011;5025;48.890;9.278;2022-12-07T15:31:31;12.50;;;8.97;;
9968;SDS011;5025;48.890;9.278;2022-12-07T15:33:57;12.20;;;9.37;;
9968;SDS011;5025;48.890;9.278;2022-12-07T15:36:23;10.67;;;8.83;;
9968;SDS011;5025;48.890;9.278;2022-12-07T15:38:51;10.10;;;8.97;;
9968;SDS011;5025;48.890;9.278;2022-12-07T15:41:17;11.87;;;10.60;;
9968;SDS011;5025;48.890;9.278;2022-12-07T15:43:42;12.43;;;10.67;;
9968;SDS011;5025;48.890;9.278;2022-12-07T15:46:30;12.37;;;10.33;;
9968;SDS011;5025;48.890;9.278;2022-12-07T15:48:56;11.83;;;9.77;;
9968;SDS011;5025;48.890;9.278;2022-12-07T15:51:22;12.17;;;10.10;;
9968;SDS011;5025;48.890;9.278;2022-12-07T15:53:47;13.07;;;11.50;;
9968;SDS011;5025;48.890;9.278;2022-12-07T15:56:12;13.57;;;11.53;;
9968;SDS011;5025;48.890;9.278;2022-12-07T15:58:38;16.07;;;12.00;;
9968;SDS011;5025;48.890;9.278;2022-12-07T16:01:13;14.20;;;12.07;;
9968;SDS011;5025;48.890;9.278;2022-12-07T16:03:43;13.93;;;11.80;;
9968;SDS011;5025;48.890;9.278;2022-12-07T16:06:09;15.40;;;12.47;;
9968;SDS011;5025;48.890;9.278;2022-12-07T16:08:35;14.23;;;12.47;;
9968;SDS011;5025;48.890;9.278;2022-12-07T16:11:04;17.40;;;13.00;;
9968;SDS011;5025;48.890;9.278;2022-12-07T16:13:30;16.63;;;13.67;;
9968;SDS011;5025;48.890;9.278;2022-12-07T16:15:56;14.30;;;12.70;;
9968;SDS011;5025;48.890;9.278;2022-12-07T16:18:21;15.20;;;13.60;;
9968;SDS011;5025;48.890;9.278;2022-12-07T16:20:49;21.47;;;16.40;;
9968;SDS011;5025;48.890;9.278;2022-12-07T16:23:14;15.57;;;12.77;;
9968;SDS011;5025;48.890;9.278;2022-12-07T16:25:40;17.27;;;13.70;;
9968;SDS011;5025;48.890;9.278;2022-12-07T16:28:06;17.73;;;14.77;;
9968;SDS011;5025;48.890;9.278;2022-12-07T16:30:32;19.03;;;15.67;;
9968;SDS011;5025;48.890;9.278;2022-12-07T16:32:58;18.73;;;15.67;;
9968;SDS011;5025;48.890;9.278;2022-12-07T16:35:23;22.00;;;17.50;;
9968;SDS011;5025;48.890;9.278;2022-12-07T16:37:48;22.27;;;15.67;;
9968;SDS011;5025;48.890;9.278;2022-12-07T16:40:14;18.23;;;13.80;;
9968;SDS011;5025;48.890;9.278;2022-12-07T16:42:39;14.93;;;12.67;;
9968;SDS011;5025;48.890;9.278;2022-12-07T16:45:04;15.07;;;12.57;;
9968;SDS011;5025;48.890;9.278;2022-12-07T16:47:30;13.27;;;11.13;;
9968;SDS011;5025;48.890;9.278;2022-12-07T16:49:55;13.40;;;11.20;;
9968;SDS011;5025;48.890;9.278;2022-12-07T16:52:21;15.43;;;12.30;;
9968;SDS011;5025;48.890;9.278;2022-12-07T16:54:47;15.00;;;12.80;;
9968;SDS011;5025;48.890;9.278;2022-12-07T16:57:13;13.57;;;12.17;;
9968;SDS011;5025;48.890;9.278;2022-12-07T16:59:39;13.90;;;12.00;;
9968;SDS011;5025;48.890;9.278;2022-12-07T17:02:04;13.20;;;11.77;;
9968;SDS011;5025;48.890;9.278;2022-12-07T17:04:31;12.80;;;10.27;;
9968;SDS011;5025;48.890;9.278;2022-12-07T17:06:57;13.53;;;11.60;;
9968;SDS011;5025;48.890;9.278;2022-12-07T17:09:23;13.40;;;11.23;;
9968;SDS011;5025;48.890;9.278;2022-12-07T17:11:49;14.83;;;13.00;;
9968;SDS011;5025;48.890;9.278;2022-12-07T17:14:14;17.67;;;15.77;;
9968;SDS011;5025;48.890;9.278;2022-12-07T17:16:58;14.53;;;12.80;;
9968;SDS011;5025;48.890;9.278;2022-12-07T17:19:23;14.53;;;12.93;;